Time,TemperatureF,DewpointF,PressureIn,WindDirection,WindDirectionDegrees,WindSpeedMPH,WindSpeedGustMPH,Humidity,HourlyPrecipIn,Conditions,Clouds,dailyrainin,SoftwareType,DateUTC
2013-03-19 00:02:00,33.9,18.5,29.12,NNW,338,6.2,6.4,53,0.00,,,0.00,WUHU216HW,2013-03-19 05:02:00,
2013-03-19 00:07:00,33.9,18.5,29.12,NNW,338,2.9,6.4,53,0.00,,,0.00,WUHU216HW,2013-03-19 05:07:00,
2013-03-19 00:12:00,33.8,17.9,29.12,NNW,338,0.0,6.2,52,0.00,,,0.00,WUHU216HW,2013-03-19 05:12:00,
2013-03-19 00:17:00,33.6,17.7,29.12,NNW,338,0.0,0.0,52,0.00,,,0.00,WUHU216HW,2013-03-19 05:17:00,
2013-03-19 00:22:00,33.4,17.6,29.13,NNW,338,0.0,0.0,52,0.00,,,0.00,WUHU216HW,2013-03-19 05:22:00,
2013-03-19 00:27:00,33.2,17.4,29.13,NNW,338,0.0,0.0,52,0.00,,,0.00,WUHU216HW,2013-03-19 05:27:00,
2013-03-19 00:32:00,32.9,17.1,29.13,NNW,338,0.0,0.0,52,0.00,,,0.00,WUHU216HW,2013-03-19 05:32:00,
2013-03-19 00:37:00,32.7,17.3,29.13,NNW,338,0.0,0.0,53,0.00,,,0.00,WUHU216HW,2013-03-19 05:37:00,
2013-03-19 00:42:00,32.5,17.2,29.14,NNW,338,0.0,0.0,53,0.00,,,0.00,WUHU216HW,2013-03-19 05:42:00,
2013-03-19 00:47:00,32.1,17.3,29.14,NNW,338,0.0,0.0,54,0.00,,,0.00,WUHU216HW,2013-03-19 05:47:00,
2013-03-19 00:53:00,31.8,16.9,29.15,NNW,338,0.0,0.0,54,0.00,,,0.00,WUHU216HW,2013-03-19 05:53:00,
2013-03-19 00:58:00,31.6,17.2,29.15,NNW,338,0.0,0.0,55,0.00,,,0.00,WUHU216HW,2013-03-19 05:58:00,
2013-03-19 01:03:00,31.2,16.9,29.14,NNW,338,0.0,0.0,55,0.00,,,0.00,WUHU216HW,2013-03-19 06:03:00,
2013-03-19 01:08:00,31.1,16.7,29.15,NNW,338,0.0,0.0,55,0.00,,,0.00,WUHU216HW,2013-03-19 06:08:00,
2013-03-19 01:13:00,30.9,16.9,29.15,NNW,338,0.0,0.0,56,0.00,,,0.00,WUHU216HW,2013-03-19 06:13:00,
2013-03-19 01:18:00,30.9,16.5,29.16,NNW,338,0.0,0.0,55,0.00,,,0.00,WUHU216HW,2013-03-19 06:18:00,
2013-03-19 01:23:00,30.7,16.5,29.15,NNW,338,0.0,0.0,55,0.00,,,0.00,WUHU216HW,2013-03-19 06:23:00,
2013-03-19 01:28:00,30.5,16.6,29.16,NNW,338,0.0,0.0,56,0.00,,,0.00,WUHU216HW,2013-03-19 06:28:00,
2013-03-19 01:33:00,30.2,16.3,29.16,NNW,338,0.0,0.0,56,0.00,,,0.00,WUHU216HW,2013-03-19 06:33:00,
2013-03-19 01:38:00,29.8,16.1,29.16,NNW,338,0.0,0.0,56,0.00,,,0.00,WUHU216HW,2013-03-19 06:38:00,
2013-03-19 01:43:00,29.4,16.0,29.17,NNW,338,0.0,0.0,57,0.00,,,0.00,WUHU216HW,2013-03-19 06:43:00,
2013-03-19 01:48:00,29.1,16.1,29.16,NNW,338,0.0,0.0,58,0.00,,,0.00,WUHU216HW,2013-03-19 06:48:00,
2013-03-19 01:53:00,28.2,15.5,29.16,NNW,338,0.0,0.0,59,0.00,,,0.00,WUHU216HW,2013-03-19 06:53:00,
2013-03-19 01:58:00,27.3,14.8,29.16,NNW,338,0.0,0.0,59,0.00,,,0.00,WUHU216HW,2013-03-19 06:58:00,
2013-03-19 02:03:00,26.7,14.7,29.16,NNW,338,0.0,0.0,60,0.00,,,0.00,WUHU216HW,2013-03-19 07:03:00,
2013-03-19 02:08:00,26.0,14.3,29.16,NNW,338,0.0,0.0,61,0.00,,,0.00,WUHU216HW,2013-03-19 07:08:00,
2013-03-19 02:13:00,25.7,14.4,29.17,NNW,338,0.0,0.0,62,0.00,,,0.00,WUHU216HW,2013-03-19 07:13:00,
2013-03-19 02:19:00,25.5,14.6,29.17,NNW,338,0.0,0.0,63,0.00,,,0.00,WUHU216HW,2013-03-19 07:19:00,
2013-03-19 02:24:00,25.5,14.4,29.15,NNW,338,0.0,0.0,63,0.00,,,0.00,WUHU216HW,2013-03-19 07:24:00,
2013-03-19 02:29:00,24.9,14.1,29.15,NNW,338,0.0,0.0,63,0.00,,,0.00,WUHU216HW,2013-03-19 07:29:00,
2013-03-19 02:34:00,24.9,14.4,29.15,NNW,338,0.0,0.0,64,0.00,,,0.00,WUHU216HW,2013-03-19 07:34:00,
2013-03-19 02:39:00,24.6,14.4,29.15,NNW,338,0.0,0.0,65,0.00,,,0.00,WUHU216HW,2013-03-19 07:39:00,
2013-03-19 02:44:00,24.6,14.4,29.15,NNW,338,0.0,0.0,65,0.00,,,0.00,WUHU216HW,2013-03-19 07:44:00,
2013-03-19 02:49:00,24.4,14.2,29.15,NNW,338,0.0,0.0,65,0.00,,,0.00,WUHU216HW,2013-03-19 07:49:00,
2013-03-19 02:54:00,24.4,14.6,29.15,NNW,338,0.0,0.0,66,0.00,,,0.00,WUHU216HW,2013-03-19 07:54:00,
2013-03-19 02:59:00,24.4,14.9,29.15,NNW,338,0.0,0.0,67,0.00,,,0.00,WUHU216HW,2013-03-19 07:59:00,
2013-03-19 03:04:00,24.0,14.9,29.15,NNW,338,0.0,0.0,68,0.00,,,0.00,WUHU216HW,2013-03-19 08:04:00,
2013-03-19 03:09:00,24.0,14.9,29.15,NNW,338,0.0,0.0,68,0.00,,,0.00,WUHU216HW,2013-03-19 08:09:00,
2013-03-19 03:14:00,23.9,14.8,29.15,NNW,338,0.0,0.0,68,0.00,,,0.00,WUHU216HW,2013-03-19 08:14:00,
2013-03-19 03:19:00,23.7,14.6,29.15,NNW,338,0.0,0.0,68,0.00,,,0.00,WUHU216HW,2013-03-19 08:19:00,
2013-03-19 03:24:00,23.7,15.0,29.15,NNW,338,0.0,0.0,69,0.00,,,0.00,WUHU216HW,2013-03-19 08:24:00,
2013-03-19 03:29:00,23.7,15.0,29.15,NNW,338,0.0,0.0,69,0.00,,,0.00,WUHU216HW,2013-03-19 08:29:00,
2013-03-19 03:34:00,23.7,15.3,29.16,NNW,338,0.0,0.0,70,0.00,,,0.00,WUHU216HW,2013-03-19 08:34:00,
2013-03-19 03:39:00,23.9,15.5,29.17,NNW,338,0.0,0.0,70,0.00,,,0.00,WUHU216HW,2013-03-19 08:39:00,
2013-03-19 03:45:00,23.9,15.5,29.16,NNW,338,0.0,0.0,70,0.00,,,0.00,WUHU216HW,2013-03-19 08:45:00,
2013-03-19 03:50:00,24.0,15.9,29.16,NNW,338,0.0,0.0,71,0.00,,,0.00,WUHU216HW,2013-03-19 08:50:00,
2013-03-19 03:55:00,24.4,16.6,29.17,NNW,338,0.0,0.0,72,0.00,,,0.00,WUHU216HW,2013-03-19 08:55:00,
2013-03-19 04:00:00,24.6,17.1,29.16,NNW,338,0.0,0.0,73,0.00,,,0.00,WUHU216HW,2013-03-19 09:00:00,
2013-03-19 04:05:00,24.6,16.8,29.16,NNW,338,0.0,0.0,72,0.00,,,0.00,WUHU216HW,2013-03-19 09:05:00,
2013-03-19 04:10:00,24.4,16.6,29.16,NNW,338,0.0,0.0,72,0.00,,,0.00,WUHU216HW,2013-03-19 09:10:00,
2013-03-19 04:15:00,24.6,17.1,29.16,NNW,338,0.0,0.0,73,0.00,,,0.00,WUHU216HW,2013-03-19 09:15:00,
2013-03-19 04:20:00,24.6,17.1,29.15,NNW,338,0.0,0.0,73,0.00,,,0.00,WUHU216HW,2013-03-19 09:20:00,
2013-03-19 04:25:00,24.4,16.9,29.16,NNW,338,0.0,0.0,73,0.00,,,0.00,WUHU216HW,2013-03-19 09:25:00,
2013-03-19 04:30:00,24.4,16.9,29.15,NNW,338,0.0,0.0,73,0.00,,,0.00,WUHU216HW,2013-03-19 09:30:00,
2013-03-19 04:35:00,24.4,16.9,29.15,NNW,338,0.0,0.0,73,0.00,,,0.00,WUHU216HW,2013-03-19 09:35:00,
2013-03-19 04:41:00,24.4,16.9,29.16,NNW,338,0.0,0.0,73,0.00,,,0.00,WUHU216HW,2013-03-19 09:41:00,
2013-03-19 04:45:00,24.0,16.9,29.16,NNW,338,0.0,0.0,74,0.00,,,0.00,WUHU216HW,2013-03-19 09:45:00,
2013-03-19 04:50:00,23.9,16.7,29.15,NNW,338,0.0,0.0,74,0.00,,,0.00,WUHU216HW,2013-03-19 09:50:00,
2013-03-19 04:56:00,23.9,16.6,29.15,NNW,338,0.0,0.0,74,0.00,,,0.00,WUHU216HW,2013-03-19 09:56:00,
2013-03-19 05:01:00,23.7,16.6,29.15,NNW,338,0.0,0.0,74,0.00,,,0.00,WUHU216HW,2013-03-19 10:01:00,
2013-03-19 05:06:00,23.7,16.9,29.15,NNW,338,0.0,0.0,75,0.00,,,0.00,WUHU216HW,2013-03-19 10:06:00,
2013-03-19 05:11:00,23.5,16.7,29.16,NNW,338,0.0,0.0,75,0.00,,,0.00,WUHU216HW,2013-03-19 10:11:00,
2013-03-19 05:16:00,23.5,16.7,29.16,NNW,338,0.0,0.0,75,0.00,,,0.00,WUHU216HW,2013-03-19 10:16:00,
2013-03-19 05:21:00,23.5,16.7,29.17,NNW,338,0.0,0.0,75,0.00,,,0.00,WUHU216HW,2013-03-19 10:21:00,
2013-03-19 05:26:00,23.1,16.4,29.17,NNW,338,0.0,0.0,75,0.00,,,0.00,WUHU216HW,2013-03-19 10:26:00,
2013-03-19 05:31:00,23.1,16.4,29.17,NNW,338,0.0,0.0,75,0.00,,,0.00,WUHU216HW,2013-03-19 10:31:00,
2013-03-19 05:36:00,22.8,16.0,29.17,NNW,338,0.0,0.0,75,0.00,,,0.00,WUHU216HW,2013-03-19 10:36:00,
2013-03-19 05:42:00,22.8,16.3,29.18,NNW,338,0.0,0.0,76,0.00,,,0.00,WUHU216HW,2013-03-19 10:42:00,
2013-03-19 05:47:00,22.8,16.3,29.18,NNW,338,0.0,0.0,76,0.00,,,0.00,WUHU216HW,2013-03-19 10:47:00,
2013-03-19 05:52:00,23.0,16.5,29.18,NNW,338,0.0,0.0,76,0.00,,,0.00,WUHU216HW,2013-03-19 10:52:00,
2013-03-19 05:57:00,23.1,16.7,29.17,NNW,338,0.0,0.0,76,0.00,,,0.00,WUHU216HW,2013-03-19 10:57:00,
2013-03-19 06:01:00,23.5,17.3,29.17,NNW,338,0.0,0.0,77,0.00,,,0.00,WUHU216HW,2013-03-19 11:01:00,
2013-03-19 06:04:00,23.7,17.5,29.17,NNW,338,0.0,0.0,77,0.00,,,0.00,WUHU216HW,2013-03-19 11:04:00,
2013-03-19 06:09:00,24.0,17.5,29.18,NNW,338,0.0,0.0,76,0.00,,,0.00,WUHU216HW,2013-03-19 11:09:00,
2013-03-19 06:14:00,24.4,17.9,29.18,NNW,338,0.0,0.0,76,0.00,,,0.00,WUHU216HW,2013-03-19 11:14:00,
2013-03-19 06:19:00,24.6,18.4,29.18,NNW,338,0.0,0.0,77,0.00,,,0.00,WUHU216HW,2013-03-19 11:19:00,
2013-03-19 06:24:00,24.9,18.7,29.18,NNW,338,0.0,0.0,77,0.00,,,0.00,WUHU216HW,2013-03-19 11:24:00,
2013-03-19 06:29:00,24.9,18.7,29.19,NNW,338,0.0,0.0,77,0.00,,,0.00,WUHU216HW,2013-03-19 11:29:00,
2013-03-19 06:34:00,25.3,19.0,29.18,NNW,338,0.0,0.0,77,0.00,,,0.00,WUHU216HW,2013-03-19 11:34:00,
2013-03-19 06:39:00,25.5,19.2,29.18,NNW,338,0.0,0.0,77,0.00,,,0.00,WUHU216HW,2013-03-19 11:39:00,
2013-03-19 06:44:00,25.5,18.9,29.18,NNW,338,0.0,0.0,76,0.00,,,0.00,WUHU216HW,2013-03-19 11:44:00,
2013-03-19 06:49:00,25.8,19.2,29.19,NNW,338,0.0,0.0,76,0.00,,,0.00,WUHU216HW,2013-03-19 11:49:00,
2013-03-19 06:54:00,25.8,19.2,29.20,NNW,338,0.0,0.0,76,0.00,,,0.00,WUHU216HW,2013-03-19 11:54:00,
2013-03-19 06:59:00,26.2,19.6,29.20,NNW,338,0.0,0.0,76,0.00,,,0.00,WUHU216HW,2013-03-19 11:59:00,
2013-03-19 07:05:00,26.4,19.7,29.20,NNW,338,0.0,0.0,76,0.00,,,0.00,WUHU216HW,2013-03-19 12:05:00,
2013-03-19 07:10:00,26.6,19.9,29.19,NNW,338,0.0,0.0,76,0.00,,,0.00,WUHU216HW,2013-03-19 12:10:00,
2013-03-19 07:15:00,26.7,20.1,29.19,NNW,338,0.0,0.0,76,0.00,,,0.00,WUHU216HW,2013-03-19 12:15:00,
2013-03-19 07:20:00,27.1,20.5,29.20,NNW,338,0.0,0.0,76,0.00,,,0.00,WUHU216HW,2013-03-19 12:20:00,
2013-03-19 07:25:00,27.3,21.0,29.20,NNW,338,0.0,0.0,77,0.00,,,0.00,WUHU216HW,2013-03-19 12:25:00,
2013-03-19 07:30:00,27.3,21.0,29.20,NNW,338,0.0,0.0,77,0.00,,,0.00,WUHU216HW,2013-03-19 12:30:00,
2013-03-19 07:35:00,27.3,21.0,29.20,NNW,338,0.0,0.0,77,0.00,,,0.00,WUHU216HW,2013-03-19 12:35:00,
2013-03-19 07:40:00,27.5,21.1,29.20,NNW,338,0.0,0.0,77,0.00,,,0.00,WUHU216HW,2013-03-19 12:40:00,
2013-03-19 07:45:00,27.6,21.3,29.20,NNW,338,0.0,0.0,77,0.00,,,0.00,WUHU216HW,2013-03-19 12:45:00,
2013-03-19 07:50:00,27.6,21.6,29.21,NNW,338,0.0,0.0,78,0.00,,,0.00,WUHU216HW,2013-03-19 12:50:00,
2013-03-19 07:55:00,27.6,21.6,29.21,NNW,338,0.0,0.0,78,0.00,,,0.00,WUHU216HW,2013-03-19 12:55:00,
2013-03-19 08:00:00,28.0,22.0,29.22,NNW,338,0.0,0.0,78,0.00,,,0.00,WUHU216HW,2013-03-19 13:00:00,
2013-03-19 08:05:00,28.0,22.0,29.23,NNW,338,0.0,0.0,78,0.00,,,0.00,WUHU216HW,2013-03-19 13:05:00,
2013-03-19 08:10:00,28.2,22.2,29.23,NNW,338,0.0,0.0,78,0.00,,,0.00,WUHU216HW,2013-03-19 13:10:00,
2013-03-19 08:15:00,28.5,22.2,29.23,NNW,338,0.0,0.0,77,0.00,,,0.00,WUHU216HW,2013-03-19 13:15:00,
2013-03-19 08:20:00,28.7,22.4,29.23,NNW,338,0.0,0.0,77,0.00,,,0.00,WUHU216HW,2013-03-19 13:20:00,
2013-03-19 08:25:00,29.1,22.7,29.22,NNW,338,0.0,0.0,77,0.00,,,0.00,WUHU216HW,2013-03-19 13:25:00,
2013-03-19 08:30:00,29.3,22.9,29.23,NNW,338,0.0,0.0,77,0.00,,,0.00,WUHU216HW,2013-03-19 13:30:00,
2013-03-19 08:36:00,29.3,22.9,29.23,NNW,338,0.0,0.0,77,0.00,,,0.00,WUHU216HW,2013-03-19 13:36:00,
2013-03-19 08:41:00,29.6,23.2,29.23,NNW,338,0.0,0.0,77,0.00,,,0.00,WUHU216HW,2013-03-19 13:41:00,
2013-03-19 08:46:00,29.8,23.4,29.24,NNW,338,0.0,0.0,77,0.00,,,0.00,WUHU216HW,2013-03-19 13:46:00,
2013-03-19 08:51:00,30.0,23.6,29.24,NNW,338,0.0,0.0,77,0.00,,,0.00,WUHU216HW,2013-03-19 13:51:00,
2013-03-19 08:56:00,30.2,23.8,29.24,NNW,338,0.0,0.0,77,0.00,,,0.00,WUHU216HW,2013-03-19 13:56:00,
2013-03-19 09:01:00,30.3,24.0,29.25,NNW,338,0.0,0.0,77,0.00,,,0.00,WUHU216HW,2013-03-19 14:01:00,
2013-03-19 09:06:00,30.7,24.3,29.25,NNW,338,0.0,0.0,77,0.00,,,0.00,WUHU216HW,2013-03-19 14:06:00,
2013-03-19 09:12:00,30.9,24.5,29.25,NNW,338,0.0,0.0,77,0.00,,,0.00,WUHU216HW,2013-03-19 14:12:00,
2013-03-19 09:17:00,31.2,24.9,29.25,NNW,338,0.0,0.0,77,0.00,,,0.00,WUHU216HW,2013-03-19 14:17:00,
2013-03-19 09:22:00,32.1,25.4,29.24,NNW,338,0.0,0.0,76,0.00,,,0.00,WUHU216HW,2013-03-19 14:22:00,
2013-03-19 09:27:00,32.5,25.7,29.24,WSW,248,0.0,0.0,76,0.00,,,0.00,WUHU216HW,2013-03-19 14:27:00,
2013-03-19 09:32:00,33.2,26.4,29.24,WSW,248,0.0,0.0,76,0.00,,,0.00,WUHU216HW,2013-03-19 14:32:00,
2013-03-19 09:37:00,34.3,26.8,29.25,WSW,248,0.0,0.0,74,0.00,,,0.00,WUHU216HW,2013-03-19 14:37:00,
2013-03-19 09:42:00,35.2,27.3,29.25,WSW,248,0.0,0.0,73,0.00,,,0.00,WUHU216HW,2013-03-19 14:42:00,
2013-03-19 09:47:00,35.2,27.0,29.26,WSW,248,0.0,0.0,72,0.00,,,0.00,WUHU216HW,2013-03-19 14:47:00,
2013-03-19 09:52:00,35.2,26.7,29.26,WSW,248,0.0,0.0,71,0.00,,,0.00,WUHU216HW,2013-03-19 14:52:00,
2013-03-19 09:57:00,35.4,26.2,29.26,WSW,248,0.0,0.0,69,0.00,,,0.00,WUHU216HW,2013-03-19 14:57:00,
2013-03-19 10:02:00,35.7,26.5,29.26,WSW,248,0.0,0.0,69,0.00,,,0.00,WUHU216HW,2013-03-19 15:02:00,
2013-03-19 10:07:00,35.9,26.0,29.27,WSW,248,0.0,0.0,67,0.00,,,0.00,WUHU216HW,2013-03-19 15:07:00,
2013-03-19 10:13:00,36.6,26.3,29.27,WSW,248,0.0,0.0,66,0.00,,,0.00,WUHU216HW,2013-03-19 15:13:00,
2013-03-19 10:18:00,37.2,26.1,29.27,WSW,248,0.0,0.0,64,0.00,,,0.00,WUHU216HW,2013-03-19 15:18:00,
2013-03-19 10:23:00,37.7,26.2,29.26,WSW,248,0.0,0.0,63,0.00,,,0.00,WUHU216HW,2013-03-19 15:23:00,
2013-03-19 10:28:00,38.8,25.6,29.27,WSW,248,0.0,0.0,59,0.00,,,0.00,WUHU216HW,2013-03-19 15:28:00,
2013-03-19 10:33:00,39.5,25.8,29.27,WSW,248,0.0,0.0,58,0.00,,,0.00,WUHU216HW,2013-03-19 15:33:00,
2013-03-19 10:38:00,40.1,24.6,29.27,WSW,248,0.0,0.0,54,0.00,,,0.00,WUHU216HW,2013-03-19 15:38:00,
2013-03-19 10:43:00,40.6,23.8,29.27,WSW,248,0.0,0.0,51,0.00,,,0.00,WUHU216HW,2013-03-19 15:43:00,
2013-03-19 10:48:00,40.8,23.5,29.27,WSW,248,0.0,0.0,50,0.00,,,0.00,WUHU216HW,2013-03-19 15:48:00,
2013-03-19 10:53:00,40.8,22.5,29.28,WSW,248,0.0,0.0,48,0.00,,,0.00,WUHU216HW,2013-03-19 15:53:00,
2013-03-19 10:58:00,40.6,22.3,29.28,West,270,0.0,0.0,48,0.00,,,0.00,WUHU216HW,2013-03-19 15:58:00,
2013-03-19 11:03:00,40.1,21.8,29.28,West,270,0.0,0.0,48,0.00,,,0.00,WUHU216HW,2013-03-19 16:03:00,
2013-03-19 11:08:00,39.3,22.2,29.28,WNW,293,0.0,0.0,50,0.00,,,0.00,WUHU216HW,2013-03-19 16:08:00,
2013-03-19 11:13:00,39.5,22.4,29.28,WNW,293,0.0,0.0,50,0.00,,,0.00,WUHU216HW,2013-03-19 16:13:00,
2013-03-19 11:18:00,39.5,22.2,29.29,WNW,293,0.0,0.0,50,0.00,,,0.00,WUHU216HW,2013-03-19 16:18:00,
2013-03-19 11:24:00,39.0,22.3,29.29,WNW,293,0.0,0.0,51,0.00,,,0.00,WUHU216HW,2013-03-19 16:24:00,
2013-03-19 11:29:00,39.3,23.1,29.29,WNW,293,0.0,0.0,52,0.00,,,0.00,WUHU216HW,2013-03-19 16:29:00,
2013-03-19 11:34:00,39.0,23.5,29.29,WNW,293,0.0,4.6,54,0.00,,,0.00,WUHU216HW,2013-03-19 16:34:00,
2013-03-19 11:39:00,38.4,23.6,29.30,WNW,293,0.0,5.5,55,0.00,,,0.00,WUHU216HW,2013-03-19 16:39:00,
2013-03-19 11:44:00,37.9,23.5,29.29,WNW,293,0.0,5.5,56,0.00,,,0.00,WUHU216HW,2013-03-19 16:44:00,
2013-03-19 11:49:00,38.1,24.1,29.29,WNW,293,4.6,6.4,58,0.00,,,0.00,WUHU216HW,2013-03-19 16:49:00,
2013-03-19 11:54:00,37.9,24.4,29.30,WNW,293,6.7,6.7,58,0.00,,,0.00,WUHU216HW,2013-03-19 16:54:00,
2013-03-19 11:59:00,37.7,24.6,29.30,WNW,293,0.0,6.7,59,0.00,,,0.00,WUHU216HW,2013-03-19 16:59:00,
2013-03-19 12:04:00,37.7,25.1,29.30,NW,315,0.0,6.4,60,0.00,,,0.00,WUHU216HW,2013-03-19 17:04:00,
2013-03-19 12:09:00,37.7,25.5,29.30,WNW,293,0.0,6.4,61,0.00,,,0.00,WUHU216HW,2013-03-19 17:09:00,
2013-03-19 12:14:00,38.3,25.9,29.30,NW,315,0.0,0.0,61,0.00,,,0.00,WUHU216HW,2013-03-19 17:14:00,
2013-03-19 12:20:00,38.8,26.4,29.30,NW,315,0.0,0.0,61,0.00,,,0.00,WUHU216HW,2013-03-19 17:20:00,
2013-03-19 12:25:00,38.8,26.4,29.30,NW,315,0.0,0.0,61,0.00,,,0.00,WUHU216HW,2013-03-19 17:25:00,
2013-03-19 12:30:00,39.0,27.3,29.30,NW,315,0.0,0.0,63,0.00,,,0.00,WUHU216HW,2013-03-19 17:30:00,
2013-03-19 12:35:00,39.5,27.9,29.30,NW,315,0.0,0.0,63,0.00,,,0.00,WUHU216HW,2013-03-19 17:35:00,
2013-03-19 12:40:00,39.7,28.4,29.30,NW,315,0.0,0.0,64,0.00,,,0.00,WUHU216HW,2013-03-19 17:40:00,
2013-03-19 12:45:00,39.5,28.2,29.30,NW,315,0.0,0.0,64,0.00,,,0.00,WUHU216HW,2013-03-19 17:45:00,
2013-03-19 12:50:00,39.3,28.1,29.30,WNW,293,0.0,0.0,64,0.00,,,0.00,WUHU216HW,2013-03-19 17:50:00,
2013-03-19 12:55:00,38.8,27.9,29.30,WNW,293,0.0,0.0,65,0.00,,,0.00,WUHU216HW,2013-03-19 17:55:00,
2013-03-19 13:00:00,38.1,27.7,29.30,WNW,293,0.0,0.0,66,0.00,,,0.00,WUHU216HW,2013-03-19 18:00:00,
2013-03-19 13:05:00,37.7,27.7,29.30,WNW,293,0.0,0.0,67,0.00,,,0.00,WUHU216HW,2013-03-19 18:05:00,
2013-03-19 13:10:00,37.2,27.6,29.30,WNW,293,0.0,0.0,68,0.00,,,0.00,WUHU216HW,2013-03-19 18:10:00,
2013-03-19 13:15:00,36.3,27.5,29.31,WNW,293,0.0,0.0,70,0.00,,,0.00,WUHU216HW,2013-03-19 18:15:00,
2013-03-19 13:20:00,35.7,27.6,29.31,WNW,293,0.0,0.0,71,0.00,,,0.00,WUHU216HW,2013-03-19 18:20:00,
2013-03-19 13:25:00,35.4,27.2,29.31,WNW,293,0.0,0.0,72,0.00,,,0.00,WUHU216HW,2013-03-19 18:25:00,
2013-03-19 13:30:00,34.8,27.0,29.31,WNW,293,0.0,0.0,73,0.00,,,0.00,WUHU216HW,2013-03-19 18:30:00,
2013-03-19 13:35:00,34.8,27.0,29.31,WNW,293,0.0,0.0,73,0.00,,,0.00,WUHU216HW,2013-03-19 18:35:00,
2013-03-19 13:40:00,34.8,27.0,29.31,WNW,293,0.0,0.0,73,0.00,,,0.00,WUHU216HW,2013-03-19 18:40:00,
2013-03-19 18:14:00,39.0,34.3,29.27,SSE,158,1.5,1.5,83,0.00,,,0.00,WUHU216HW,2013-03-19 23:14:00,
2013-03-19 18:20:00,39.3,34.6,29.27,SSE,158,0.0,2.2,83,0.00,,,0.00,WUHU216HW,2013-03-19 23:20:00,
2013-03-19 18:25:00,39.3,34.6,29.27,South,180,0.0,2.6,83,0.14,,,0.14,WUHU216HW,2013-03-19 23:25:00,
2013-03-19 18:30:00,39.3,34.6,29.27,SSE,158,0.0,2.6,83,0.14,,,0.14,WUHU216HW,2013-03-19 23:30:00,
2013-03-19 18:35:00,39.5,34.8,29.27,SSE,158,0.6,2.4,83,0.14,,,0.14,WUHU216HW,2013-03-19 23:35:00,
2013-03-19 18:40:00,39.3,34.6,29.27,SSE,158,0.0,2.6,83,0.14,,,0.14,WUHU216HW,2013-03-19 23:40:00,
2013-03-19 18:45:00,39.0,34.3,29.26,SSE,158,2.4,2.6,83,0.14,,,0.14,WUHU216HW,2013-03-19 23:45:00,
2013-03-19 18:50:00,39.0,34.3,29.26,SSE,158,0.0,2.6,83,0.14,,,0.14,WUHU216HW,2013-03-19 23:50:00,
2013-03-19 18:55:00,38.8,34.1,29.27,SSE,158,0.0,2.6,83,0.14,,,0.14,WUHU216HW,2013-03-19 23:55:00,
2013-03-19 19:00:00,38.8,34.1,29.27,SSE,158,0.0,0.0,83,0.14,,,0.14,WUHU216HW,2013-03-20 00:00:00,
2013-03-19 19:05:00,38.4,33.7,29.27,SSE,158,0.0,0.0,83,0.14,,,0.14,WUHU216HW,2013-03-20 00:05:00,
2013-03-19 19:10:00,37.9,33.2,29.27,South,180,0.0,0.0,83,0.14,,,0.14,WUHU216HW,2013-03-20 00:10:00,
2013-03-19 19:15:00,37.5,33.1,29.27,South,180,0.0,0.0,84,0.14,,,0.14,WUHU216HW,2013-03-20 00:15:00,
2013-03-19 19:20:00,37.2,32.7,29.27,South,180,0.0,0.0,84,0.14,,,0.14,WUHU216HW,2013-03-20 00:20:00,
2013-03-19 19:25:00,36.6,32.2,29.27,South,180,0.0,0.0,84,0.00,,,0.14,WUHU216HW,2013-03-20 00:25:00,
2013-03-19 19:30:00,36.1,31.7,29.27,South,180,0.0,0.0,84,0.00,,,0.14,WUHU216HW,2013-03-20 00:30:00,
2013-03-19 19:35:00,35.7,31.3,29.27,South,180,0.0,0.0,84,0.00,,,0.14,WUHU216HW,2013-03-20 00:35:00,
2013-03-19 19:40:00,35.2,31.1,29.27,South,180,0.0,0.0,85,0.00,,,0.14,WUHU216HW,2013-03-20 00:40:00,
2013-03-19 19:45:00,34.8,30.7,29.27,South,180,0.0,0.0,85,0.00,,,0.14,WUHU216HW,2013-03-20 00:45:00,
2013-03-19 19:51:00,34.3,30.2,29.28,South,180,0.0,0.0,85,0.00,,,0.14,WUHU216HW,2013-03-20 00:51:00,
2013-03-19 19:56:00,34.3,30.2,29.27,South,180,0.0,0.0,85,0.00,,,0.14,WUHU216HW,2013-03-20 00:56:00,
2013-03-19 20:01:00,34.1,30.3,29.28,South,180,0.0,0.0,86,0.00,,,0.14,WUHU216HW,2013-03-20 01:01:00,
2013-03-19 20:06:00,33.9,30.1,29.28,South,180,0.0,0.0,86,0.00,,,0.14,WUHU216HW,2013-03-20 01:06:00,
2013-03-19 20:11:00,33.8,29.9,29.28,South,180,0.0,0.0,86,0.00,,,0.14,WUHU216HW,2013-03-20 01:11:00,
2013-03-19 20:16:00,33.6,29.7,29.28,South,180,0.0,0.0,86,0.00,,,0.14,WUHU216HW,2013-03-20 01:16:00,
2013-03-19 20:21:00,33.2,29.4,29.28,South,180,0.0,0.0,86,0.00,,,0.14,WUHU216HW,2013-03-20 01:21:00,
2013-03-19 20:26:00,32.9,29.1,29.28,South,180,0.0,0.0,86,0.00,,,0.14,WUHU216HW,2013-03-20 01:26:00,
2013-03-19 20:31:00,32.9,29.1,29.28,South,180,0.0,0.0,86,0.00,,,0.14,WUHU216HW,2013-03-20 01:31:00,
2013-03-19 20:36:00,32.1,28.4,29.28,South,180,0.0,0.0,86,0.00,,,0.14,WUHU216HW,2013-03-20 01:36:00,
2013-03-19 20:41:00,31.8,28.1,29.29,South,180,0.0,0.0,86,0.00,,,0.14,WUHU216HW,2013-03-20 01:41:00,
2013-03-19 20:46:00,31.8,28.1,29.29,South,180,0.0,0.0,86,0.00,,,0.14,WUHU216HW,2013-03-20 01:46:00,
2013-03-19 20:51:00,31.6,28.2,29.29,South,180,0.0,0.0,87,0.00,,,0.14,WUHU216HW,2013-03-20 01:51:00,
2013-03-19 20:56:00,31.6,28.2,29.29,South,180,0.0,0.0,87,0.00,,,0.14,WUHU216HW,2013-03-20 01:56:00,
2013-03-19 21:02:00,31.6,28.2,29.29,South,180,0.0,0.0,87,0.00,,,0.14,WUHU216HW,2013-03-20 02:02:00,
2013-03-19 21:07:00,31.6,28.2,29.30,South,180,0.0,0.0,87,0.00,,,0.14,WUHU216HW,2013-03-20 02:07:00,
2013-03-19 21:12:00,31.1,27.8,29.30,South,180,0.0,0.0,87,0.00,,,0.14,WUHU216HW,2013-03-20 02:12:00,
2013-03-19 21:17:00,30.7,27.3,29.30,South,180,0.0,0.0,87,0.00,,,0.14,WUHU216HW,2013-03-20 02:17:00,
2013-03-19 21:22:00,30.7,27.3,29.30,South,180,0.0,0.0,87,0.00,,,0.14,WUHU216HW,2013-03-20 02:22:00,
2013-03-19 21:27:00,31.1,28.0,29.30,South,180,0.0,0.0,88,0.00,,,0.14,WUHU216HW,2013-03-20 02:27:00,
2013-03-19 21:32:00,31.1,28.0,29.30,South,180,0.0,0.0,88,0.00,,,0.14,WUHU216HW,2013-03-20 02:32:00,
2013-03-19 21:37:00,31.1,28.0,29.31,South,180,0.0,0.0,88,0.00,,,0.14,WUHU216HW,2013-03-20 02:37:00,
2013-03-19 21:42:00,30.9,27.8,29.31,South,180,0.0,0.0,88,0.00,,,0.14,WUHU216HW,2013-03-20 02:42:00,
2013-03-19 21:47:00,30.7,27.6,29.31,South,180,0.0,0.0,88,0.00,,,0.14,WUHU216HW,2013-03-20 02:47:00,
2013-03-19 21:52:00,30.2,27.1,29.31,South,180,0.0,0.0,88,0.00,,,0.14,WUHU216HW,2013-03-20 02:52:00,
2013-03-19 21:57:00,30.0,26.9,29.31,South,180,0.0,0.0,88,0.00,,,0.14,WUHU216HW,2013-03-20 02:57:00,
2013-03-19 22:02:00,30.0,26.9,29.31,South,180,0.0,0.0,88,0.00,,,0.14,WUHU216HW,2013-03-20 03:02:00,
2013-03-19 22:08:00,30.0,26.9,29.31,South,180,0.0,0.0,88,0.00,,,0.14,WUHU216HW,2013-03-20 03:08:00,
2013-03-19 22:13:00,30.0,26.9,29.31,South,180,0.0,0.0,88,0.00,,,0.14,WUHU216HW,2013-03-20 03:13:00,
2013-03-19 22:18:00,29.8,26.7,29.31,South,180,0.0,0.0,88,0.00,,,0.14,WUHU216HW,2013-03-20 03:18:00,
2013-03-19 22:23:00,29.4,26.3,29.31,South,180,0.0,0.0,88,0.00,,,0.14,WUHU216HW,2013-03-20 03:23:00,
2013-03-19 22:28:00,29.3,26.2,29.31,South,180,0.0,0.0,88,0.00,,,0.14,WUHU216HW,2013-03-20 03:28:00,
2013-03-19 22:33:00,29.1,26.0,29.31,South,180,0.0,0.0,88,0.00,,,0.14,WUHU216HW,2013-03-20 03:33:00,
2013-03-19 22:38:00,28.5,25.4,29.32,South,180,0.0,0.0,88,0.00,,,0.14,WUHU216HW,2013-03-20 03:38:00,
2013-03-19 22:43:00,28.5,25.4,29.31,South,180,0.0,0.0,88,0.00,,,0.14,WUHU216HW,2013-03-20 03:43:00,
2013-03-19 22:48:00,28.2,25.1,29.31,South,180,0.0,0.0,88,0.00,,,0.14,WUHU216HW,2013-03-20 03:48:00,
2013-03-19 22:53:00,28.5,25.4,29.31,South,180,0.0,0.0,88,0.00,,,0.14,WUHU216HW,2013-03-20 03:53:00,
2013-03-19 22:58:00,28.5,25.4,29.31,South,180,0.0,0.0,88,0.00,,,0.14,WUHU216HW,2013-03-20 03:58:00,
2013-03-19 23:00:00,28.5,25.4,29.31,South,180,0.0,0.0,88,0.00,,,0.14,WUHU216HW,2013-03-20 04:00:00,
2013-03-19 23:01:00,28.5,25.4,29.31,South,180,0.0,0.0,88,0.00,,,0.14,WUHU216HW,2013-03-20 04:01:00,
2013-03-19 23:06:00,28.5,25.7,29.31,South,180,0.0,0.0,89,0.00,,,0.14,WUHU216HW,2013-03-20 04:06:00,
2013-03-19 23:11:00,28.5,25.7,29.31,South,180,0.0,0.0,89,0.00,,,0.14,WUHU216HW,2013-03-20 04:11:00,
2013-03-19 23:16:00,28.5,25.7,29.31,South,180,0.0,0.0,89,0.00,,,0.14,WUHU216HW,2013-03-20 04:16:00,
2013-03-19 23:21:00,28.2,25.1,29.31,South,180,0.0,0.0,88,0.00,,,0.14,WUHU216HW,2013-03-20 04:21:00,
2013-03-19 23:26:00,27.6,24.8,29.31,South,180,0.0,0.0,89,0.00,,,0.14,WUHU216HW,2013-03-20 04:26:00,
2013-03-19 23:31:00,27.3,24.2,29.30,South,180,0.0,0.0,88,0.00,,,0.14,WUHU216HW,2013-03-20 04:31:00,
2013-03-19 23:36:00,27.1,24.0,29.30,South,180,0.0,0.0,88,0.00,,,0.14,WUHU216HW,2013-03-20 04:36:00,
2013-03-19 23:41:00,27.1,24.0,29.30,South,180,0.0,0.0,88,0.00,,,0.14,WUHU216HW,2013-03-20 04:41:00,
2013-03-19 23:47:00,27.1,24.0,29.30,South,180,0.0,0.0,88,0.00,,,0.14,WUHU216HW,2013-03-20 04:47:00,
2013-03-19 23:51:00,27.1,24.0,29.30,South,180,0.0,0.0,88,0.00,,,0.14,WUHU216HW,2013-03-20 04:51:00,
2013-03-19 23:57:00,27.3,24.2,29.30,South,180,0.0,0.0,88,0.00,,,0.14,WUHU216HW,2013-03-20 04:57:00,